sensor_id;sensor_type;location;lat;lon;timestamp;temperature;humidity
66312;HTU21D;53114;51.138;6.008;2023-04-24T00:00:56;11.11;118.99
66312;HTU21D;53114;51.138;6.008;2023-04-24T00:03:25;11.13;118.99
66312;HTU21D;53114;51.138;6.008;2023-04-24T00:05:51;11.15;118.99
66312;HTU21D;53114;51.138;6.008;2023-04-24T00:08:18;11.17;118.99
66312;HTU21D;53114;51.138;6.008;2023-04-24T00:10:44;11.12;118.99
66312;HTU21D;53114;51.138;6.008;2023-04-24T00:13:11;11.07;118.99
66312;HTU21D;53114;51.138;6.008;2023-04-24T00:15:37;10.99;118.99
66312;HTU21D;53114;51.138;6.008;2023-04-24T00:18:03;10.96;118.99
66312;HTU21D;53114;51.138;6.008;2023-04-24T00:20:29;10.97;118.99
66312;HTU21D;53114;51.138;6.008;2023-04-24T00:22:55;10.96;118.99
66312;HTU21D;53114;51.138;6.008;2023-04-24T00:25:21;10.96;118.99
66312;HTU21D;53114;51.138;6.008;2023-04-24T00:27:47;11.00;118.99
66312;HTU21D;53114;51.138;6.008;2023-04-24T00:30:13;11.01;118.99
66312;HTU21D;53114;51.138;6.008;2023-04-24T00:32:39;10.97;118.99
66312;HTU21D;53114;51.138;6.008;2023-04-24T00:35:06;10.97;118.99
66312;HTU21D;53114;51.138;6.008;2023-04-24T00:37:32;10.98;118.99
66312;HTU21D;53114;51.138;6.008;2023-04-24T00:39:57;11.01;118.99
66312;HTU21D;53114;51.138;6.008;2023-04-24T00:42:24;10.99;118.99
66312;HTU21D;53114;51.138;6.008;2023-04-24T00:44:50;11.00;118.99
66312;HTU21D;53114;51.138;6.008;2023-04-24T00:47:18;11.01;118.99
66312;HTU21D;53114;51.138;6.008;2023-04-24T00:49:44;11.00;118.99
66312;HTU21D;53114;51.138;6.008;2023-04-24T00:52:10;10.89;118.99
66312;HTU21D;53114;51.138;6.008;2023-04-24T00:54:38;10.92;118.99
66312;HTU21D;53114;51.138;6.008;2023-04-24T00:57:04;10.85;118.99
66312;HTU21D;53114;51.138;6.008;2023-04-24T00:59:30;10.79;118.99
66312;HTU21D;53114;51.138;6.008;2023-04-24T01:01:57;10.77;118.99
66312;HTU21D;53114;51.138;6.008;2023-04-24T01:04:24;10.74;118.99
66312;HTU21D;53114;51.138;6.008;2023-04-24T01:06:51;10.74;118.99
66312;HTU21D;53114;51.138;6.008;2023-04-24T01:09:18;10.78;118.99
66312;HTU21D;53114;51.138;6.008;2023-04-24T01:11:46;10.78;118.99
66312;HTU21D;53114;51.138;6.008;2023-04-24T01:14:12;10.72;118.99
66312;HTU21D;53114;51.138;6.008;2023-04-24T01:16:39;10.72;118.99
66312;HTU21D;53114;51.138;6.008;2023-04-24T01:19:06;10.73;118.99
66312;HTU21D;53114;51.138;6.008;2023-04-24T01:21:36;10.78;118.99
66312;HTU21D;53114;51.138;6.008;2023-04-24T01:24:04;10.80;118.99
66312;HTU21D;53114;51.138;6.008;2023-04-24T01:26:31;10.85;118.99
66312;HTU21D;53114;51.138;6.008;2023-04-24T01:28:57;10.87;118.99
66312;HTU21D;53114;51.138;6.008;2023-04-24T01:31:23;10.79;118.99
66312;HTU21D;53114;51.138;6.008;2023-04-24T01:33:51;10.80;118.99
66312;HTU21D;53114;51.138;6.008;2023-04-24T01:36:18;10.71;118.99
66312;HTU21D;53114;51.138;6.008;2023-04-24T01:38:44;10.74;118.99
66312;HTU21D;53114;51.138;6.008;2023-04-24T01:41:10;10.71;118.99
66312;HTU21D;53114;51.138;6.008;2023-04-24T01:43:36;10.72;118.99
66312;HTU21D;53114;51.138;6.008;2023-04-24T01:46:02;10.78;118.99
66312;HTU21D;53114;51.138;6.008;2023-04-24T01:48:28;10.69;118.99
66312;HTU21D;53114;51.138;6.008;2023-04-24T01:50:56;10.66;118.99
66312;HTU21D;53114;51.138;6.008;2023-04-24T01:53:23;10.72;118.99
66312;HTU21D;53114;51.138;6.008;2023-04-24T01:55:49;10.77;118.99
66312;HTU21D;53114;51.138;6.008;2023-04-24T01:58:14;10.71;118.99
66312;HTU21D;53114;51.138;6.008;2023-04-24T02:00:40;10.75;118.99
66312;HTU21D;53114;51.138;6.008;2023-04-24T02:03:06;10.73;118.99
66312;HTU21D;53114;51.138;6.008;2023-04-24T02:05:33;10.79;118.99
66312;HTU21D;53114;51.138;6.008;2023-04-24T02:07:58;10.79;118.99
66312;HTU21D;53114;51.138;6.008;2023-04-24T02:10:25;10.77;118.99
66312;HTU21D;53114;51.138;6.008;2023-04-24T02:12:51;10.79;118.99
66312;HTU21D;53114;51.138;6.008;2023-04-24T02:15:17;10.82;118.99
66312;HTU21D;53114;51.138;6.008;2023-04-24T02:17:43;10.71;118.99
66312;HTU21D;53114;51.138;6.008;2023-04-24T02:20:09;10.65;118.99
66312;HTU21D;53114;51.138;6.008;2023-04-24T02:22:35;10.69;118.99
66312;HTU21D;53114;51.138;6.008;2023-04-24T02:25:02;10.69;118.99
66312;HTU21D;53114;51.138;6.008;2023-04-24T02:27:30;10.74;118.99
66312;HTU21D;53114;51.138;6.008;2023-04-24T02:29:56;10.72;118.99
66312;HTU21D;53114;51.138;6.008;2023-04-24T02:32:22;10.67;118.99
66312;HTU21D;53114;51.138;6.008;2023-04-24T02:34:48;10.71;118.99
66312;HTU21D;53114;51.138;6.008;2023-04-24T02:37:14;10.72;118.99
66312;HTU21D;53114;51.138;6.008;2023-04-24T02:39:40;10.75;118.99
66312;HTU21D;53114;51.138;6.008;2023-04-24T02:42:06;10.78;118.99
66312;HTU21D;53114;51.138;6.008;2023-04-24T02:44:34;10.80;118.99
66312;HTU21D;53114;51.138;6.008;2023-04-24T02:47:00;10.73;118.99
66312;HTU21D;53114;51.138;6.008;2023-04-24T02:49:26;10.71;118.99
66312;HTU21D;53114;51.138;6.008;2023-04-24T02:51:53;10.71;118.99
66312;HTU21D;53114;51.138;6.008;2023-04-24T02:54:19;10.71;118.99
66312;HTU21D;53114;51.138;6.008;2023-04-24T02:56:45;10.73;118.99
66312;HTU21D;53114;51.138;6.008;2023-04-24T02:59:11;10.77;118.99
66312;HTU21D;53114;51.138;6.008;2023-04-24T03:01:37;10.71;118.99
66312;HTU21D;53114;51.138;6.008;2023-04-24T03:04:03;10.71;118.99
66312;HTU21D;53114;51.138;6.008;2023-04-24T03:06:29;10.71;118.99
66312;HTU21D;53114;51.138;6.008;2023-04-24T03:08:56;10.68;118.99
66312;HTU21D;53114;51.138;6.008;2023-04-24T03:11:22;10.68;118.99
66312;HTU21D;53114;51.138;6.008;2023-04-24T03:13:48;10.72;118.99
66312;HTU21D;53114;51.138;6.008;2023-04-24T03:16:14;10.64;118.99
66312;HTU21D;53114;51.138;6.008;2023-04-24T03:18:40;10.66;118.99
66312;HTU21D;53114;51.138;6.008;2023-04-24T03:21:07;10.66;118.99
66312;HTU21D;53114;51.138;6.008;2023-04-24T03:23:34;10.68;118.99
66312;HTU21D;53114;51.138;6.008;2023-04-24T03:25:59;10.64;118.99
66312;HTU21D;53114;51.138;6.008;2023-04-24T03:28:26;10.62;118.99
66312;HTU21D;53114;51.138;6.008;2023-04-24T03:30:57;10.64;118.99
66312;HTU21D;53114;51.138;6.008;2023-04-24T03:33:24;10.58;118.99
66312;HTU21D;53114;51.138;6.008;2023-04-24T03:35:59;10.54;118.99
66312;HTU21D;53114;51.138;6.008;2023-04-24T03:38:26;10.56;118.99
66312;HTU21D;53114;51.138;6.008;2023-04-24T03:41:16;10.50;118.99
66312;HTU21D;53114;51.138;6.008;2023-04-24T03:43:50;10.50;118.99
66312;HTU21D;53114;51.138;6.008;2023-04-24T03:46:16;10.50;118.99
66312;HTU21D;53114;51.138;6.008;2023-04-24T03:48:47;10.51;118.99
66312;HTU21D;53114;51.138;6.008;2023-04-24T03:51:16;10.48;118.99
66312;HTU21D;53114;51.138;6.008;2023-04-24T03:53:45;10.50;118.99
66312;HTU21D;53114;51.138;6.008;2023-04-24T03:56:14;10.46;118.99
66312;HTU21D;53114;51.138;6.008;2023-04-24T03:58:41;10.44;118.99
66312;HTU21D;53114;51.138;6.008;2023-04-24T04:01:07;10.40;118.99
66312;HTU21D;53114;51.138;6.008;2023-04-24T04:03:45;10.29;118.99
66312;HTU21D;53114;51.138;6.008;2023-04-24T04:06:13;10.22;118.99
66312;HTU21D;53114;51.138;6.008;2023-04-24T04:08:39;10.16;118.99
66312;HTU21D;53114;51.138;6.008;2023-04-24T04:11:05;10.18;118.99
66312;HTU21D;53114;51.138;6.008;2023-04-24T04:13:31;10.13;118.99
66312;HTU21D;53114;51.138;6.008;2023-04-24T04:15:57;10.10;118.99
66312;HTU21D;53114;51.138;6.008;2023-04-24T04:18:23;10.04;118.99
66312;HTU21D;53114;51.138;6.008;2023-04-24T04:20:49;9.93;118.99
66312;HTU21D;53114;51.138;6.008;2023-04-24T04:23:16;9.91;118.99
66312;HTU21D;53114;51.138;6.008;2023-04-24T04:25:51;9.89;118.99
66312;HTU21D;53114;51.138;6.008;2023-04-24T04:28:21;9.90;118.99
66312;HTU21D;53114;51.138;6.008;2023-04-24T04:30:48;9.88;118.99
66312;HTU21D;53114;51.138;6.008;2023-04-24T04:33:14;9.83;118.99
66312;HTU21D;53114;51.138;6.008;2023-04-24T04:35:41;9.81;118.99
66312;HTU21D;53114;51.138;6.008;2023-04-24T04:38:08;9.80;118.99
66312;HTU21D;53114;51.138;6.008;2023-04-24T04:41:02;9.79;118.99
66312;HTU21D;53114;51.138;6.008;2023-04-24T04:43:30;9.82;118.99
66312;HTU21D;53114;51.138;6.008;2023-04-24T04:45:58;9.84;118.99
66312;HTU21D;53114;51.138;6.008;2023-04-24T04:48:24;9.86;118.99
66312;HTU21D;53114;51.138;6.008;2023-04-24T04:50:51;9.86;118.99
66312;HTU21D;53114;51.138;6.008;2023-04-24T04:53:17;9.86;118.99
66312;HTU21D;53114;51.138;6.008;2023-04-24T04:55:43;9.88;118.99
66312;HTU21D;53114;51.138;6.008;2023-04-24T04:58:13;9.91;118.99
66312;HTU21D;53114;51.138;6.008;2023-04-24T05:00:39;9.90;118.99
66312;HTU21D;53114;51.138;6.008;2023-04-24T05:03:27;9.97;118.99
66312;HTU21D;53114;51.138;6.008;2023-04-24T05:05:59;10.01;118.99
66312;HTU21D;53114;51.138;6.008;2023-04-24T05:08:27;10.07;118.99
66312;HTU21D;53114;51.138;6.008;2023-04-24T05:10:54;10.06;118.99
66312;HTU21D;53114;51.138;6.008;2023-04-24T05:13:21;9.99;118.99
66312;HTU21D;53114;51.138;6.008;2023-04-24T05:15:47;9.97;118.99
66312;HTU21D;53114;51.138;6.008;2023-04-24T05:18:14;9.91;118.99
66312;HTU21D;53114;51.138;6.008;2023-04-24T05:20:41;9.79;118.99
66312;HTU21D;53114;51.138;6.008;2023-04-24T05:23:09;9.64;118.99
66312;HTU21D;53114;51.138;6.008;2023-04-24T05:25:37;9.57;118.99
66312;HTU21D;53114;51.138;6.008;2023-04-24T05:28:08;9.59;118.99
66312;HTU21D;53114;51.138;6.008;2023-04-24T05:30:35;9.48;118.99
66312;HTU21D;53114;51.138;6.008;2023-04-24T05:33:01;9.47;118.99
66312;HTU21D;53114;51.138;6.008;2023-04-24T05:35:29;9.36;118.99
66312;HTU21D;53114;51.138;6.008;2023-04-24T05:37:55;9.39;118.99
66312;HTU21D;53114;51.138;6.008;2023-04-24T05:40:21;9.38;118.99
66312;HTU21D;53114;51.138;6.008;2023-04-24T05:42:47;9.35;118.99
66312;HTU21D;53114;51.138;6.008;2023-04-24T05:45:13;9.35;118.99
66312;HTU21D;53114;51.138;6.008;2023-04-24T05:47:43;9.34;118.99
66312;HTU21D;53114;51.138;6.008;2023-04-24T05:50:13;9.30;118.99
66312;HTU21D;53114;51.138;6.008;2023-04-24T05:52:39;9.30;118.99
66312;HTU21D;53114;51.138;6.008;2023-04-24T05:55:17;9.31;118.99
66312;HTU21D;53114;51.138;6.008;2023-04-24T05:57:43;9.31;118.99
66312;HTU21D;53114;51.138;6.008;2023-04-24T06:00:10;9.36;118.99
66312;HTU21D;53114;51.138;6.008;2023-04-24T06:02:47;9.40;118.99
66312;HTU21D;53114;51.138;6.008;2023-04-24T06:05:13;9.41;118.99
66312;HTU21D;53114;51.138;6.008;2023-04-24T06:07:40;9.45;118.99
66312;HTU21D;53114;51.138;6.008;2023-04-24T06:10:07;9.48;118.99
66312;HTU21D;53114;51.138;6.008;2023-04-24T06:12:39;9.48;118.99
66312;HTU21D;53114;51.138;6.008;2023-04-24T06:15:10;9.39;118.99
66312;HTU21D;53114;51.138;6.008;2023-04-24T06:17:52;9.31;118.99
66312;HTU21D;53114;51.138;6.008;2023-04-24T06:20:20;9.31;118.99
66312;HTU21D;53114;51.138;6.008;2023-04-24T06:22:45;9.30;118.99
66312;HTU21D;53114;51.138;6.008;2023-04-24T06:25:11;9.30;118.99
66312;HTU21D;53114;51.138;6.008;2023-04-24T06:27:37;9.27;118.99
66312;HTU21D;53114;51.138;6.008;2023-04-24T06:30:04;9.30;118.99
66312;HTU21D;53114;51.138;6.008;2023-04-24T06:32:30;9.30;118.99
66312;HTU21D;53114;51.138;6.008;2023-04-24T06:34:56;9.24;118.99
66312;HTU21D;53114;51.138;6.008;2023-04-24T06:37:22;9.20;118.99
66312;HTU21D;53114;51.138;6.008;2023-04-24T06:39:48;9.15;118.99
66312;HTU21D;53114;51.138;6.008;2023-04-24T06:42:14;9.02;118.99
66312;HTU21D;53114;51.138;6.008;2023-04-24T06:44:43;8.85;118.99
66312;HTU21D;53114;51.138;6.008;2023-04-24T06:47:12;8.70;118.99
66312;HTU21D;53114;51.138;6.008;2023-04-24T06:49:42;8.58;118.99
66312;HTU21D;53114;51.138;6.008;2023-04-24T06:52:08;8.47;118.99
66312;HTU21D;53114;51.138;6.008;2023-04-24T06:54:35;8.35;118.99
66312;HTU21D;53114;51.138;6.008;2023-04-24T06:57:01;8.28;118.99
66312;HTU21D;53114;51.138;6.008;2023-04-24T06:59:28;8.23;118.99
66312;HTU21D;53114;51.138;6.008;2023-04-24T07:01:54;8.17;118.99
66312;HTU21D;53114;51.138;6.008;2023-04-24T07:04:20;8.13;118.99
66312;HTU21D;53114;51.138;6.008;2023-04-24T07:06:46;8.05;118.99
66312;HTU21D;53114;51.138;6.008;2023-04-24T07:09:13;8.04;118.99
66312;HTU21D;53114;51.138;6.008;2023-04-24T07:11:39;7.99;118.99
66312;HTU21D;53114;51.138;6.008;2023-04-24T07:14:07;7.97;118.99
66312;HTU21D;53114;51.138;6.008;2023-04-24T07:16:33;7.97;118.99
66312;HTU21D;53114;51.138;6.008;2023-04-24T07:18:59;7.94;118.99
66312;HTU21D;53114;51.138;6.008;2023-04-24T07:21:25;7.91;118.99
66312;HTU21D;53114;51.138;6.008;2023-04-24T07:23:52;7.96;118.99
66312;HTU21D;53114;51.138;6.008;2023-04-24T07:26:19;7.99;118.99
66312;HTU21D;53114;51.138;6.008;2023-04-24T07:28:46;8.02;118.99
66312;HTU21D;53114;51.138;6.008;2023-04-24T07:31:12;8.07;118.99
66312;HTU21D;53114;51.138;6.008;2023-04-24T07:33:38;8.11;118.99
66312;HTU21D;53114;51.138;6.008;2023-04-24T07:36:04;8.12;118.99
66312;HTU21D;53114;51.138;6.008;2023-04-24T07:38:30;8.12;118.99
66312;HTU21D;53114;51.138;6.008;2023-04-24T07:40:56;8.14;118.99
66312;HTU21D;53114;51.138;6.008;2023-04-24T07:43:23;8.16;118.99
66312;HTU21D;53114;51.138;6.008;2023-04-24T07:45:52;8.15;118.99
66312;HTU21D;53114;51.138;6.008;2023-04-24T07:48:18;8.12;118.99
66312;HTU21D;53114;51.138;6.008;2023-04-24T07:50:44;8.15;118.99
66312;HTU21D;53114;51.138;6.008;2023-04-24T07:53:10;8.16;118.99
66312;HTU21D;53114;51.138;6.008;2023-04-24T07:55:36;8.20;118.99
66312;HTU21D;53114;51.138;6.008;2023-04-24T07:58:02;8.19;118.99
66312;HTU21D;53114;51.138;6.008;2023-04-24T08:00:28;8.19;118.99
66312;HTU21D;53114;51.138;6.008;2023-04-24T08:02:54;8.18;118.99
66312;HTU21D;53114;51.138;6.008;2023-04-24T08:05:20;8.14;118.99
66312;HTU21D;53114;51.138;6.008;2023-04-24T08:07:46;8.12;118.99
66312;HTU21D;53114;51.138;6.008;2023-04-24T08:10:14;8.15;118.99
66312;HTU21D;53114;51.138;6.008;2023-04-24T08:12:41;8.17;118.99
66312;HTU21D;53114;51.138;6.008;2023-04-24T08:15:07;8.17;118.99
66312;HTU21D;53114;51.138;6.008;2023-04-24T08:17:34;8.20;118.99
66312;HTU21D;53114;51.138;6.008;2023-04-24T08:20:02;8.23;118.99
66312;HTU21D;53114;51.138;6.008;2023-04-24T08:22:30;8.22;118.99
66312;HTU21D;53114;51.138;6.008;2023-04-24T08:24:56;8.28;118.99
66312;HTU21D;53114;51.138;6.008;2023-04-24T08:27:23;8.31;118.99
66312;HTU21D;53114;51.138;6.008;2023-04-24T08:29:49;8.34;118.99
66312;HTU21D;53114;51.138;6.008;2023-04-24T08:32:16;8.37;118.99
66312;HTU21D;53114;51.138;6.008;2023-04-24T08:34:42;8.44;118.99
66312;HTU21D;53114;51.138;6.008;2023-04-24T08:37:08;8.50;118.99
66312;HTU21D;53114;51.138;6.008;2023-04-24T08:39:34;8.65;118.99
66312;HTU21D;53114;51.138;6.008;2023-04-24T08:42:00;8.76;118.99
66312;HTU21D;53114;51.138;6.008;2023-04-24T08:44:32;8.82;118.99
66312;HTU21D;53114;51.138;6.008;2023-04-24T08:46:58;8.86;118.99
66312;HTU21D;53114;51.138;6.008;2023-04-24T08:49:29;8.89;118.99
66312;HTU21D;53114;51.138;6.008;2023-04-24T08:51:55;8.97;118.99
66312;HTU21D;53114;51.138;6.008;2023-04-24T08:54:21;9.07;118.99
66312;HTU21D;53114;51.138;6.008;2023-04-24T08:56:48;9.15;118.99
66312;HTU21D;53114;51.138;6.008;2023-04-24T08:59:15;9.25;118.99
66312;HTU21D;53114;51.138;6.008;2023-04-24T09:01:41;9.35;118.99
66312;HTU21D;53114;51.138;6.008;2023-04-24T09:04:09;9.46;118.99
66312;HTU21D;53114;51.138;6.008;2023-04-24T09:06:39;9.65;118.99
66312;HTU21D;53114;51.138;6.008;2023-04-24T09:09:06;9.85;118.99
66312;HTU21D;53114;51.138;6.008;2023-04-24T09:11:32;10.00;118.99
66312;HTU21D;53114;51.138;6.008;2023-04-24T09:13:59;10.14;118.99
66312;HTU21D;53114;51.138;6.008;2023-04-24T09:16:26;10.31;118.99
66312;HTU21D;53114;51.138;6.008;2023-04-24T09:18:53;10.54;118.99
66312;HTU21D;53114;51.138;6.008;2023-04-24T09:21:21;10.65;118.99
66312;HTU21D;53114;51.138;6.008;2023-04-24T09:24:02;10.66;118.99
66312;HTU21D;53114;51.138;6.008;2023-04-24T09:26:30;10.58;118.99
66312;HTU21D;53114;51.138;6.008;2023-04-24T09:28:59;10.55;118.99
66312;HTU21D;53114;51.138;6.008;2023-04-24T09:31:28;10.64;118.99
66312;HTU21D;53114;51.138;6.008;2023-04-24T09:34:02;10.79;118.99
66312;HTU21D;53114;51.138;6.008;2023-04-24T09:36:38;10.66;118.99
66312;HTU21D;53114;51.138;6.008;2023-04-24T09:39:06;10.55;118.99
66312;HTU21D;53114;51.138;6.008;2023-04-24T09:41:55;10.42;118.99
66312;HTU21D;53114;51.138;6.008;2023-04-24T09:44:25;10.28;118.99
66312;HTU21D;53114;51.138;6.008;2023-04-24T09:49:24;9.99;118.99
66312;HTU21D;53114;51.138;6.008;2023-04-24T09:51:50;9.89;118.99
66312;HTU21D;53114;51.138;6.008;2023-04-24T09:54:18;9.86;118.99
66312;HTU21D;53114;51.138;6.008;2023-04-24T09:56:49;9.85;118.99
66312;HTU21D;53114;51.138;6.008;2023-04-24T09:59:18;9.83;118.99
66312;HTU21D;53114;51.138;6.008;2023-04-24T10:01:44;9.80;118.99
66312;HTU21D;53114;51.138;6.008;2023-04-24T10:04:19;9.82;118.99
66312;HTU21D;53114;51.138;6.008;2023-04-24T10:06:47;9.74;118.99
66312;HTU21D;53114;51.138;6.008;2023-04-24T10:09:15;9.71;118.99
66312;HTU21D;53114;51.138;6.008;2023-04-24T10:11:44;9.76;118.99
66312;HTU21D;53114;51.138;6.008;2023-04-24T10:14:13;9.82;118.99
66312;HTU21D;53114;51.138;6.008;2023-04-24T10:16:40;9.93;118.99
66312;HTU21D;53114;51.138;6.008;2023-04-24T10:19:07;10.14;118.99
66312;HTU21D;53114;51.138;6.008;2023-04-24T10:21:34;10.51;118.99
66312;HTU21D;53114;51.138;6.008;2023-04-24T10:24:01;11.03;118.99
66312;HTU21D;53114;51.138;6.008;2023-04-24T10:26:29;11.82;118.99
66312;HTU21D;53114;51.138;6.008;2023-04-24T10:28:58;12.72;118.99
66312;HTU21D;53114;51.138;6.008;2023-04-24T10:31:25;13.18;118.99
66312;HTU21D;53114;51.138;6.008;2023-04-24T10:33:53;13.68;118.99
66312;HTU21D;53114;51.138;6.008;2023-04-24T10:36:23;14.25;118.99
66312;HTU21D;53114;51.138;6.008;2023-04-24T10:38:52;14.48;118.99
66312;HTU21D;53114;51.138;6.008;2023-04-24T10:41:20;14.42;118.99
66312;HTU21D;53114;51.138;6.008;2023-04-24T10:44:09;14.20;118.99
66312;HTU21D;53114;51.138;6.008;2023-04-24T10:46:37;14.58;118.99
66312;HTU21D;53114;51.138;6.008;2023-04-24T10:49:05;15.45;118.99
66312;HTU21D;53114;51.138;6.008;2023-04-24T10:51:51;15.45;115.03
66312;HTU21D;53114;51.138;6.008;2023-04-24T10:54:33;14.36;118.99
66312;HTU21D;53114;51.138;6.008;2023-04-24T11:00:15;12.32;118.99
66312;HTU21D;53114;51.138;6.008;2023-04-24T11:02:41;11.90;118.99
66312;HTU21D;53114;51.138;6.008;2023-04-24T11:05:16;11.48;118.99
66312;HTU21D;53114;51.138;6.008;2023-04-24T11:08:14;11.29;118.99
66312;HTU21D;53114;51.138;6.008;2023-04-24T11:10:46;11.15;118.99
66312;HTU21D;53114;51.138;6.008;2023-04-24T11:13:21;11.16;118.99
66312;HTU21D;53114;51.138;6.008;2023-04-24T11:16:43;11.32;118.99
66312;HTU21D;53114;51.138;6.008;2023-04-24T11:27:18;11.56;118.99
66312;HTU21D;53114;51.138;6.008;2023-04-24T11:32:41;12.66;118.99
66312;HTU21D;53114;51.138;6.008;2023-04-24T11:35:19;13.52;118.99
66312;HTU21D;53114;51.138;6.008;2023-04-24T11:37:48;14.04;118.99
66312;HTU21D;53114;51.138;6.008;2023-04-24T11:40:19;13.95;104.79
66312;HTU21D;53114;51.138;6.008;2023-04-24T11:42:53;13.41;117.24
66312;HTU21D;53114;51.138;6.008;2023-04-24T11:45:26;13.09;118.99
66312;HTU21D;53114;51.138;6.008;2023-04-24T11:47:52;12.80;118.99
66312;HTU21D;53114;51.138;6.008;2023-04-24T11:50:22;12.71;118.99
66312;HTU21D;53114;51.138;6.008;2023-04-24T11:52:50;12.79;118.99
66312;HTU21D;53114;51.138;6.008;2023-04-24T11:57:45;13.80;115.77
66312;HTU21D;53114;51.138;6.008;2023-04-24T12:00:20;13.70;96.07
66312;HTU21D;53114;51.138;6.008;2023-04-24T12:02:47;13.48;114.16
66312;HTU21D;53114;51.138;6.008;2023-04-24T12:05:26;13.41;114.75
66312;HTU21D;53114;51.138;6.008;2023-04-24T12:07:53;13.27;110.62
66312;HTU21D;53114;51.138;6.008;2023-04-24T12:10:25;13.07;115.41
66312;HTU21D;53114;51.138;6.008;2023-04-24T12:12:51;12.91;114.90
66312;HTU21D;53114;51.138;6.008;2023-04-24T12:15:21;12.79;117.41
66312;HTU21D;53114;51.138;6.008;2023-04-24T12:17:50;12.59;117.21
66312;HTU21D;53114;51.138;6.008;2023-04-24T12:20:17;12.46;113.87
66312;HTU21D;53114;51.138;6.008;2023-04-24T12:22:46;12.43;117.80
66312;HTU21D;53114;51.138;6.008;2023-04-24T12:25:15;12.45;115.91
66312;HTU21D;53114;51.138;6.008;2023-04-24T12:27:41;12.42;114.51
66312;HTU21D;53114;51.138;6.008;2023-04-24T12:30:11;12.38;116.04
66312;HTU21D;53114;51.138;6.008;2023-04-24T12:32:46;12.36;116.54
66312;HTU21D;53114;51.138;6.008;2023-04-24T12:35:13;12.40;113.11
66312;HTU21D;53114;51.138;6.008;2023-04-24T12:37:42;12.61;115.53
66312;HTU21D;53114;51.138;6.008;2023-04-24T12:40:10;12.91;114.86
66312;HTU21D;53114;51.138;6.008;2023-04-24T12:42:43;13.29;113.75
66312;HTU21D;53114;51.138;6.008;2023-04-24T12:45:09;13.61;110.73
66312;HTU21D;53114;51.138;6.008;2023-04-24T12:47:38;13.73;110.90
66312;HTU21D;53114;51.138;6.008;2023-04-24T12:50:05;13.81;109.62
66312;HTU21D;53114;51.138;6.008;2023-04-24T12:52:31;13.96;110.70
66312;HTU21D;53114;51.138;6.008;2023-04-24T12:54:59;13.98;109.47
66312;HTU21D;53114;51.138;6.008;2023-04-24T12:57:28;13.90;106.10
66312;HTU21D;53114;51.138;6.008;2023-04-24T12:59:55;13.63;97.87
66312;HTU21D;53114;51.138;6.008;2023-04-24T13:02:27;13.32;100.86
66312;HTU21D;53114;51.138;6.008;2023-04-24T13:04:54;13.06;107.79
66312;HTU21D;53114;51.138;6.008;2023-04-24T13:07:21;12.89;100.19
66312;HTU21D;53114;51.138;6.008;2023-04-24T13:09:48;12.78;110.24
66312;HTU21D;53114;51.138;6.008;2023-04-24T13:12:15;12.78;110.93
66312;HTU21D;53114;51.138;6.008;2023-04-24T13:14:41;12.85;111.58
66312;HTU21D;53114;51.138;6.008;2023-04-24T13:17:07;12.92;106.27
66312;HTU21D;53114;51.138;6.008;2023-04-24T13:19:38;12.94;107.29
66312;HTU21D;53114;51.138;6.008;2023-04-24T13:22:04;12.96;111.01
66312;HTU21D;53114;51.138;6.008;2023-04-24T13:24:31;12.94;110.55
66312;HTU21D;53114;51.138;6.008;2023-04-24T13:26:58;12.84;111.26
66312;HTU21D;53114;51.138;6.008;2023-04-24T13:29:24;12.62;111.35
66312;HTU21D;53114;51.138;6.008;2023-04-24T13:31:51;12.56;112.68
66312;HTU21D;53114;51.138;6.008;2023-04-24T13:34:18;12.64;112.69
66312;HTU21D;53114;51.138;6.008;2023-04-24T13:36:44;12.85;110.45
66312;HTU21D;53114;51.138;6.008;2023-04-24T13:39:10;12.85;105.92
66312;HTU21D;53114;51.138;6.008;2023-04-24T13:41:36;12.88;108.96
66312;HTU21D;53114;51.138;6.008;2023-04-24T13:44:05;12.95;107.62
66312;HTU21D;53114;51.138;6.008;2023-04-24T13:46:32;13.23;106.77
66312;HTU21D;53114;51.138;6.008;2023-04-24T13:48:58;13.56;106.40
66312;HTU21D;53114;51.138;6.008;2023-04-24T13:51:27;13.79;105.05
66312;HTU21D;53114;51.138;6.008;2023-04-24T13:53:53;13.90;104.05
66312;HTU21D;53114;51.138;6.008;2023-04-24T13:56:21;13.82;103.38
66312;HTU21D;53114;51.138;6.008;2023-04-24T13:58:48;13.83;102.88
66312;HTU21D;53114;51.138;6.008;2023-04-24T14:01:14;13.94;101.83
66312;HTU21D;53114;51.138;6.008;2023-04-24T14:03:42;13.98;99.47
66312;HTU21D;53114;51.138;6.008;2023-04-24T14:06:09;13.97;99.60
66312;HTU21D;53114;51.138;6.008;2023-04-24T14:08:34;13.96;99.76
66312;HTU21D;53114;51.138;6.008;2023-04-24T14:11:00;14.03;99.51
66312;HTU21D;53114;51.138;6.008;2023-04-24T14:13:27;14.13;97.56
66312;HTU21D;53114;51.138;6.008;2023-04-24T14:15:53;14.20;95.22
66312;HTU21D;53114;51.138;6.008;2023-04-24T14:18:19;14.26;94.88
66312;HTU21D;53114;51.138;6.008;2023-04-24T14:20:45;14.50;93.63
66312;HTU21D;53114;51.138;6.008;2023-04-24T14:23:11;14.54;87.96
66312;HTU21D;53114;51.138;6.008;2023-04-24T14:25:37;14.56;85.72
66312;HTU21D;53114;51.138;6.008;2023-04-24T14:28:03;14.56;88.02
66312;HTU21D;53114;51.138;6.008;2023-04-24T14:30:29;14.44;80.78
66312;HTU21D;53114;51.138;6.008;2023-04-24T14:32:55;14.28;81.86
66312;HTU21D;53114;51.138;6.008;2023-04-24T14:35:21;14.32;86.97
66312;HTU21D;53114;51.138;6.008;2023-04-24T14:37:47;14.43;86.00
66312;HTU21D;53114;51.138;6.008;2023-04-24T14:40:13;14.43;78.11
66312;HTU21D;53114;51.138;6.008;2023-04-24T14:42:40;14.52;86.56
66312;HTU21D;53114;51.138;6.008;2023-04-24T14:45:06;14.62;84.59
66312;HTU21D;53114;51.138;6.008;2023-04-24T14:47:33;14.59;82.52
66312;HTU21D;53114;51.138;6.008;2023-04-24T14:49:59;14.50;72.82
66312;HTU21D;53114;51.138;6.008;2023-04-24T14:52:25;14.43;83.66
66312;HTU21D;53114;51.138;6.008;2023-04-24T14:54:51;14.45;82.83
66312;HTU21D;53114;51.138;6.008;2023-04-24T14:57:17;14.30;82.95
66312;HTU21D;53114;51.138;6.008;2023-04-24T14:59:43;14.17;82.88
66312;HTU21D;53114;51.138;6.008;2023-04-24T15:02:08;14.05;81.39
66312;HTU21D;53114;51.138;6.008;2023-04-24T15:04:34;13.98;71.11
66312;HTU21D;53114;51.138;6.008;2023-04-24T15:07:00;14.05;82.89
66312;HTU21D;53114;51.138;6.008;2023-04-24T15:09:26;14.10;82.60
66312;HTU21D;53114;51.138;6.008;2023-04-24T15:11:52;14.23;83.74
66312;HTU21D;53114;51.138;6.008;2023-04-24T15:14:18;14.47;82.78
66312;HTU21D;53114;51.138;6.008;2023-04-24T15:16:44;14.56;81.62
66312;HTU21D;53114;51.138;6.008;2023-04-24T15:19:10;14.52;82.96
66312;HTU21D;53114;51.138;6.008;2023-04-24T15:21:37;14.39;83.86
66312;HTU21D;53114;51.138;6.008;2023-04-24T15:24:04;14.17;85.62
66312;HTU21D;53114;51.138;6.008;2023-04-24T15:26:30;14.10;86.13
66312;HTU21D;53114;51.138;6.008;2023-04-24T15:28:56;14.05;87.01
66312;HTU21D;53114;51.138;6.008;2023-04-24T15:31:22;14.14;85.90